KGLR

Gaylord Regional Airport

Gaylord, Michigan, USA
METAR KGLR 201853Z AUTO 35011G19KT 320V020 10SM SCT043 OVC085 03/M04 A2975 RMK AO2 SLP083 T00331039
Observed Flight Rules
Oct-20 @ 18:53 UTC (an hour ago) Visual Flight Rules
Wind Visibility Clouds
350° at 11 knots
 Gusting to 19 knots
10 miles
  • Scattered at 4,300' AGL
  • Overcast at 8,500' AGL
Temperatures Readings
Current 3°C / 37°F
Dewpoint -4°C / 25°F
Humidity 60%
Altimeter 29.75" Hg
Pressure 1008.3 hPa
Elevation 407
METAR KGLR 201853Z AUTO 35011G19KT 320V020 10SM SCT043 OVC085 03/M04 A2975 RMK AO2 SLP083 T00331039
Observed Flight Rules
Oct-20 @ 18:53 UTC
(an hour ago)
VFR
Wind Visibility
350° at 11 knots
 Gusting to 19 knots
10 miles
Clouds
  • Scattered at 4,300' AGL
  • Overcast at 8,500' AGL
Temperature Dewpoint
3°C / 37°F -4°C / 25°F
Humidity Altimeter Pressure
60% 29.75" Hg 1008.3 hPa